Airport View

Enter AWOS ICAO identifier for current METAR.

ex. KFNL

KCKV 112152Z AUTO 20003KT 10SM CLR 08/M07 A3050 RMK AO2 SLP331 T00781067

11 Dec 2019 22:55

Frequency: 134.575

Phone: 931-431-3045

Other Area AWOS: KEOD - KHOP - KM91 - KM02

TAF KCKV 111723Z 1118/1218 20007KT P6SM SKC FM120200 16002KT P6SM SKC